This is the latest recevied weather packets stored in our database for station/object YC0TBU-3. If no packets are shown the sender has not sent any weather packets the latest 10 day(s).
| Time | Temp. | Humidity | Pressure | Rain* | Wind** | Luminosity | Snow |
|---|---|---|---|---|---|---|---|
| 1788103428 | 31.67° C | 59% | 1016.4 hPa | - | - | - | - |
| 1788101663 | 31.67° C | 59% | 1016.2 hPa | - | - | - | - |
| 1788100018 | 31.67° C | 58% | 1016.7 hPa | - | - | - | - |
| 1788098513 | 32.22° C | 58% | 1016.5 hPa | - | - | - | - |
| 1788096591 | 32.22° C | 58% | 1016.1 hPa | - | - | - | - |
| 1788094882 | 32.22° C | 58% | 1015.3 hPa | - | - | - | - |
| 1788093163 | 32.78° C | 55% | 1016.1 hPa | - | - | - | - |
| 1788091463 | 32.78° C | 54% | 1014.8 hPa | - | - | - | - |
| 1788089853 | 33.33° C | 52% | 1014.1 hPa | - | - | - | - |
| 1788088074 | 33.89° C | 52% | 1014.6 hPa | - | - | - | - |
| 1788086347 | 33.89° C | 50% | 1014 hPa | - | - | - | - |
| 1788084648 | 34.44° C | 47% | 1013.6 hPa | - | - | - | - |
| 1788083115 | 35.56° C | 45% | 1012.9 hPa | - | - | - | - |
| 1788081248 | 36.67° C | 43% | 1013.6 hPa | - | - | - | - |
| 1788079548 | 36.67° C | 43% | 1013.5 hPa | - | - | - | - |
| 1788077864 | 36.11° C | 41% | 1013.2 hPa | - | - | - | - |
| 1788076148 | 35.56° C | 41% | 1012.4 hPa | - | - | - | - |
| 1788074552 | 35.56° C | 41% | 1013.2 hPa | - | - | - | - |
| 1788072759 | 35.56° C | 41% | 1013.1 hPa | - | - | - | - |
| 1788071065 | 35.56° C | 42% | 1013.8 hPa | - | - | - | - |
| 1788069321 | 35.56° C | 41% | 1015.2 hPa | - | - | - | - |
| 1788067616 | 35° C | 44% | 1015.9 hPa | - | - | - | - |
| 1788065969 | 34.44° C | 46% | 1016.9 hPa | - | - | - | - |
| 1788064216 | 33.89° C | 47% | 1016.8 hPa | - | - | - | - |
| 1788062516 | 33.33° C | 49% | 1017.9 hPa | - | - | - | - |
* Rain since midnight (hover to see other rain measurements)
** Current wind speed in m/s (hover to see current wind gust speed)